sensor_id;sensor_type;location;lat;lon;timestamp;pressure;altitude;pressure_sealevel;temperature;humidity
49178;BME280;35016;55.674;37.468;2023-09-12T00:02:16;99425.09;;;10.89;74.02
49178;BME280;35016;55.674;37.468;2023-09-12T00:04:44;99425.34;;;10.87;74.52
49178;BME280;35016;55.674;37.468;2023-09-12T00:07:11;99422.38;;;10.89;74.21
49178;BME280;35016;55.674;37.468;2023-09-12T00:09:38;99416.13;;;10.88;74.03
49178;BME280;35016;55.674;37.468;2023-09-12T00:12:06;99423.72;;;10.86;74.15
49178;BME280;35016;55.674;37.468;2023-09-12T00:14:33;99423.19;;;10.84;74.37
49178;BME280;35016;55.674;37.468;2023-09-12T00:17:01;99419.38;;;10.80;74.07
49178;BME280;35016;55.674;37.468;2023-09-12T00:19:28;99424.53;;;10.81;74.34
49178;BME280;35016;55.674;37.468;2023-09-12T00:21:55;99418.28;;;10.81;74.60
49178;BME280;35016;55.674;37.468;2023-09-12T00:24:22;99427.50;;;10.80;74.51
49178;BME280;35016;55.674;37.468;2023-09-12T00:26:50;99416.63;;;10.75;74.50
49178;BME280;35016;55.674;37.468;2023-09-12T00:29:17;99427.47;;;10.75;74.52
49178;BME280;35016;55.674;37.468;2023-09-12T00:31:45;99427.72;;;10.73;74.26
49178;BME280;35016;55.674;37.468;2023-09-12T00:34:18;99432.91;;;10.75;74.98
49178;BME280;35016;55.674;37.468;2023-09-12T00:36:46;99435.59;;;10.75;73.97
49178;BME280;35016;55.674;37.468;2023-09-12T00:39:13;99436.94;;;10.72;74.75
49178;BME280;35016;55.674;37.468;2023-09-12T00:41:40;99438.28;;;10.70;74.18
49178;BME280;35016;55.674;37.468;2023-09-12T00:44:07;99433.09;;;10.68;75.04
49178;BME280;35016;55.674;37.468;2023-09-12T00:46:34;99433.38;;;10.67;74.69
49178;BME280;35016;55.674;37.468;2023-09-12T00:49:03;99437.97;;;10.66;74.46
49178;BME280;35016;55.674;37.468;2023-09-12T00:51:34;99448.00;;;10.66;74.49
49178;BME280;35016;55.674;37.468;2023-09-12T00:54:03;99440.94;;;10.65;74.35
49178;BME280;35016;55.674;37.468;2023-09-12T00:56:30;99446.09;;;10.66;74.43
49178;BME280;35016;55.674;37.468;2023-09-12T00:58:58;99448.81;;;10.66;74.62
49178;BME280;35016;55.674;37.468;2023-09-12T01:01:26;99448.28;;;10.69;74.91
49178;BME280;35016;55.674;37.468;2023-09-12T01:03:54;99448.56;;;10.68;74.78
49178;BME280;35016;55.674;37.468;2023-09-12T01:06:24;99455.38;;;10.70;74.78
49178;BME280;35016;55.674;37.468;2023-09-12T01:08:53;99443.13;;;10.68;74.78
49178;BME280;35016;55.674;37.468;2023-09-12T01:11:22;99457.00;;;10.71;74.91
49178;BME280;35016;55.674;37.468;2023-09-12T01:13:50;99457.28;;;10.70;75.07
49178;BME280;35016;55.674;37.468;2023-09-12T01:16:17;99459.66;;;10.66;74.67
49178;BME280;35016;55.674;37.468;2023-09-12T01:18:45;99457.22;;;10.65;74.09
49178;BME280;35016;55.674;37.468;2023-09-12T01:27:28;99453.63;;;10.54;74.82
49178;BME280;35016;55.674;37.468;2023-09-12T01:30:00;99454.97;;;10.51;74.17
49178;BME280;35016;55.674;37.468;2023-09-12T01:32:31;99464.47;;;10.54;74.59
49178;BME280;35016;55.674;37.468;2023-09-12T01:34:59;99456.59;;;10.52;74.71
49178;BME280;35016;55.674;37.468;2023-09-12T01:37:27;99457.69;;;10.51;74.61
49178;BME280;35016;55.674;37.468;2023-09-12T01:39:54;99458.75;;;10.50;74.32
49178;BME280;35016;55.674;37.468;2023-09-12T01:42:22;99464.44;;;10.49;74.98
49178;BME280;35016;55.674;37.468;2023-09-12T01:44:52;99462.53;;;10.49;75.44
49178;BME280;35016;55.674;37.468;2023-09-12T01:47:21;99467.72;;;10.51;74.80
49178;BME280;35016;55.674;37.468;2023-09-12T01:49:52;99459.56;;;10.51;74.83
49178;BME280;35016;55.674;37.468;2023-09-12T01:52:20;99460.38;;;10.51;74.72
49178;BME280;35016;55.674;37.468;2023-09-12T01:54:49;99457.38;;;10.48;74.46
49178;BME280;35016;55.674;37.468;2023-09-12T01:57:18;99472.03;;;10.47;74.79
49178;BME280;35016;55.674;37.468;2023-09-12T01:59:49;99467.94;;;10.44;74.53
49178;BME280;35016;55.674;37.468;2023-09-12T02:02:16;99476.59;;;10.41;74.57
49178;BME280;35016;55.674;37.468;2023-09-12T02:04:54;99465.97;;;10.40;75.26
49178;BME280;35016;55.674;37.468;2023-09-12T02:07:26;99470.56;;;10.39;75.23
49178;BME280;35016;55.674;37.468;2023-09-12T02:09:53;99480.06;;;10.37;74.51
49178;BME280;35016;55.674;37.468;2023-09-12T02:12:21;99469.72;;;10.34;74.45
49178;BME280;35016;55.674;37.468;2023-09-12T02:14:48;99486.00;;;10.34;74.74
49178;BME280;35016;55.674;37.468;2023-09-12T02:17:15;99477.56;;;10.30;74.88
49178;BME280;35016;55.674;37.468;2023-09-12T02:19:47;99482.41;;;10.28;75.09
49178;BME280;35016;55.674;37.468;2023-09-12T02:22:14;99484.06;;;10.29;74.65
49178;BME280;35016;55.674;37.468;2023-09-12T02:24:41;99482.41;;;10.28;74.95
49178;BME280;35016;55.674;37.468;2023-09-12T02:27:09;99486.47;;;10.26;74.64
49178;BME280;35016;55.674;37.468;2023-09-12T02:29:38;99490.78;;;10.21;75.26
49178;BME280;35016;55.674;37.468;2023-09-12T02:32:06;99489.13;;;10.20;74.93
49178;BME280;35016;55.674;37.468;2023-09-12T02:34:33;99501.84;;;10.20;75.24
49178;BME280;35016;55.674;37.468;2023-09-12T02:37:01;99489.38;;;10.19;75.24
49178;BME280;35016;55.674;37.468;2023-09-12T02:39:28;99486.91;;;10.17;74.46
49178;BME280;35016;55.674;37.468;2023-09-12T02:41:55;99492.03;;;10.14;74.96
49178;BME280;35016;55.674;37.468;2023-09-12T02:44:22;99500.16;;;10.14;74.96
49178;BME280;35016;55.674;37.468;2023-09-12T02:46:50;99504.69;;;10.08;75.02
49178;BME280;35016;55.674;37.468;2023-09-12T02:49:18;99504.44;;;10.10;75.34
49178;BME280;35016;55.674;37.468;2023-09-12T02:51:45;99504.69;;;10.08;75.23
49178;BME280;35016;55.674;37.468;2023-09-12T02:54:12;99495.69;;;10.03;75.08
49178;BME280;35016;55.674;37.468;2023-09-12T02:56:40;99500.59;;;10.06;75.32
49178;BME280;35016;55.674;37.468;2023-09-12T02:59:07;99502.50;;;10.05;75.34
49178;BME280;35016;55.674;37.468;2023-09-12T03:01:34;99506.28;;;10.04;75.45
49178;BME280;35016;55.674;37.468;2023-09-12T03:04:01;99507.59;;;10.02;75.69
49178;BME280;35016;55.674;37.468;2023-09-12T03:06:29;99508.94;;;9.99;75.77
49178;BME280;35016;55.674;37.468;2023-09-12T03:08:57;99502.13;;;9.97;75.88
49178;BME280;35016;55.674;37.468;2023-09-12T03:11:28;99520.03;;;9.98;75.81
49178;BME280;35016;55.674;37.468;2023-09-12T03:13:56;99511.34;;;9.96;75.58
49178;BME280;35016;55.674;37.468;2023-09-12T03:16:23;99510.53;;;9.95;75.60
49178;BME280;35016;55.674;37.468;2023-09-12T03:18:51;99505.94;;;9.96;75.41
49178;BME280;35016;55.674;37.468;2023-09-12T03:21:19;99502.41;;;9.95;75.80
49178;BME280;35016;55.674;37.468;2023-09-12T03:23:46;99498.34;;;9.98;75.53
49178;BME280;35016;55.674;37.468;2023-09-12T03:26:14;99507.31;;;9.98;76.04
49178;BME280;35016;55.674;37.468;2023-09-12T03:28:41;99510.31;;;10.02;75.92
49178;BME280;35016;55.674;37.468;2023-09-12T03:31:14;99511.69;;;10.04;76.01
49178;BME280;35016;55.674;37.468;2023-09-12T03:33:43;99517.41;;;10.08;76.12
49178;BME280;35016;55.674;37.468;2023-09-12T03:36:17;99515.81;;;10.12;75.50
49178;BME280;35016;55.674;37.468;2023-09-12T03:38:46;99514.53;;;10.14;75.78
49178;BME280;35016;55.674;37.468;2023-09-12T03:41:13;99518.63;;;10.17;75.97
49178;BME280;35016;55.674;37.468;2023-09-12T03:43:40;99516.47;;;10.19;75.57
49178;BME280;35016;55.674;37.468;2023-09-12T03:46:08;99519.50;;;10.22;75.60
49178;BME280;35016;55.674;37.468;2023-09-12T03:48:35;99511.41;;;10.28;75.06
49178;BME280;35016;55.674;37.468;2023-09-12T03:51:04;99509.81;;;10.32;75.83
49178;BME280;35016;55.674;37.468;2023-09-12T03:53:31;99507.16;;;10.37;75.54
49178;BME280;35016;55.674;37.468;2023-09-12T03:55:58;99513.47;;;10.42;75.10
49178;BME280;35016;55.674;37.468;2023-09-12T03:58:27;99515.13;;;10.48;75.29
49178;BME280;35016;55.674;37.468;2023-09-12T04:00:54;99518.97;;;10.52;75.05
49178;BME280;35016;55.674;37.468;2023-09-12T04:03:22;99515.47;;;10.57;75.19
49178;BME280;35016;55.674;37.468;2023-09-12T04:05:50;99519.84;;;10.63;74.65
49178;BME280;35016;55.674;37.468;2023-09-12T04:08:18;99515.06;;;10.70;75.04
49178;BME280;35016;55.674;37.468;2023-09-12T04:10:45;99520.53;;;10.80;74.83
49178;BME280;35016;55.674;37.468;2023-09-12T04:13:12;99518.69;;;10.86;74.71
49178;BME280;35016;55.674;37.468;2023-09-12T04:15:39;99523.88;;;10.93;74.33
49178;BME280;35016;55.674;37.468;2023-09-12T04:18:06;99529.31;;;10.98;74.80
49178;BME280;35016;55.674;37.468;2023-09-12T04:20:34;99528.56;;;11.02;74.41
49178;BME280;35016;55.674;37.468;2023-09-12T04:23:02;99532.38;;;11.06;74.69
49178;BME280;35016;55.674;37.468;2023-09-12T04:25:30;99539.47;;;11.12;74.08
49178;BME280;35016;55.674;37.468;2023-09-12T04:27:58;99534.91;;;11.18;74.30
49178;BME280;35016;55.674;37.468;2023-09-12T04:30:25;99534.66;;;11.25;74.26
49178;BME280;35016;55.674;37.468;2023-09-12T04:32:53;99538.25;;;11.30;73.99
49178;BME280;35016;55.674;37.468;2023-09-12T04:35:21;99538.25;;;11.35;73.40
49178;BME280;35016;55.674;37.468;2023-09-12T04:37:49;99535.31;;;11.42;73.41
49178;BME280;35016;55.674;37.468;2023-09-12T04:40:16;99542.38;;;11.48;73.32
49178;BME280;35016;55.674;37.468;2023-09-12T04:42:44;99539.44;;;11.55;73.76
49178;BME280;35016;55.674;37.468;2023-09-12T04:45:12;99542.47;;;11.63;73.28
49178;BME280;35016;55.674;37.468;2023-09-12T04:47:40;99541.94;;;11.71;72.77
49178;BME280;35016;55.674;37.468;2023-09-12T04:50:07;99543.38;;;11.79;72.59
49178;BME280;35016;55.674;37.468;2023-09-12T04:52:35;99547.50;;;11.87;72.89
49178;BME280;35016;55.674;37.468;2023-09-12T04:55:02;99535.00;;;11.96;72.57
49178;BME280;35016;55.674;37.468;2023-09-12T04:57:31;99545.63;;;12.02;72.06
49178;BME280;35016;55.674;37.468;2023-09-12T04:59:58;99548.34;;;12.13;72.02
49178;BME280;35016;55.674;37.468;2023-09-12T05:02:26;99541.59;;;12.20;72.00
49178;BME280;35016;55.674;37.468;2023-09-12T05:04:53;99547.03;;;12.25;71.56
49178;BME280;35016;55.674;37.468;2023-09-12T05:07:22;99543.25;;;12.31;71.26
49178;BME280;35016;55.674;37.468;2023-09-12T05:09:49;99537.00;;;12.36;71.32
49178;BME280;35016;55.674;37.468;2023-09-12T05:12:17;99537.25;;;12.39;71.24
49178;BME280;35016;55.674;37.468;2023-09-12T05:14:45;99545.19;;;12.46;71.05
49178;BME280;35016;55.674;37.468;2023-09-12T05:17:13;99547.09;;;12.56;71.17
49178;BME280;35016;55.674;37.468;2023-09-12T05:19:40;99550.88;;;12.65;70.99
49178;BME280;35016;55.674;37.468;2023-09-12T05:22:07;99544.34;;;12.71;70.60
49178;BME280;35016;55.674;37.468;2023-09-12T05:24:34;99555.00;;;12.78;70.38
49178;BME280;35016;55.674;37.468;2023-09-12T05:27:01;99552.00;;;12.79;70.31
49178;BME280;35016;55.674;37.468;2023-09-12T05:29:29;99559.59;;;12.87;70.11
49178;BME280;35016;55.674;37.468;2023-09-12T05:31:56;99563.13;;;12.93;70.18
49178;BME280;35016;55.674;37.468;2023-09-12T05:34:27;99569.38;;;12.98;69.79
49178;BME280;35016;55.674;37.468;2023-09-12T05:37:12;99557.16;;;13.01;69.68
49178;BME280;35016;55.674;37.468;2023-09-12T05:39:39;99574.84;;;13.09;69.48
49178;BME280;35016;55.674;37.468;2023-09-12T05:42:10;99568.28;;;13.15;69.57
49178;BME280;35016;55.674;37.468;2023-09-12T05:44:37;99569.69;;;13.17;69.56
49178;BME280;35016;55.674;37.468;2023-09-12T05:47:06;99574.03;;;13.23;69.53
49178;BME280;35016;55.674;37.468;2023-09-12T05:49:34;99557.69;;;13.18;69.08
49178;BME280;35016;55.674;37.468;2023-09-12T05:52:02;99573.75;;;13.30;68.92
49178;BME280;35016;55.674;37.468;2023-09-12T05:54:30;99568.84;;;13.37;68.82
49178;BME280;35016;55.674;37.468;2023-09-12T05:57:29;99585.66;;;13.54;68.54
49178;BME280;35016;55.674;37.468;2023-09-12T06:00:33;99556.81;;;13.48;68.11
49178;BME280;35016;55.674;37.468;2023-09-12T06:03:01;99583.75;;;13.65;67.86
49178;BME280;35016;55.674;37.468;2023-09-12T06:05:29;99578.53;;;13.74;67.71
49178;BME280;35016;55.674;37.468;2023-09-12T06:07:56;99586.41;;;13.80;67.79
49178;BME280;35016;55.674;37.468;2023-09-12T06:10:23;99582.03;;;13.84;67.29
49178;BME280;35016;55.674;37.468;2023-09-12T06:12:51;99591.81;;;13.95;67.17
49178;BME280;35016;55.674;37.468;2023-09-12T06:15:18;99584.69;;;14.00;67.03
49178;BME280;35016;55.674;37.468;2023-09-12T06:17:45;99589.84;;;14.06;66.92
49178;BME280;35016;55.674;37.468;2023-09-12T06:20:13;99589.03;;;14.06;66.59
49178;BME280;35016;55.674;37.468;2023-09-12T06:22:40;99595.00;;;14.13;66.81
49178;BME280;35016;55.674;37.468;2023-09-12T06:25:08;99603.16;;;14.18;66.44
49178;BME280;35016;55.674;37.468;2023-09-12T06:27:35;99608.34;;;14.19;66.76
49178;BME280;35016;55.674;37.468;2023-09-12T06:30:02;99597.97;;;14.21;66.28
49178;BME280;35016;55.674;37.468;2023-09-12T06:32:34;99603.66;;;14.25;66.21
49178;BME280;35016;55.674;37.468;2023-09-12T06:35:02;99599.28;;;14.29;66.50
49178;BME280;35016;55.674;37.468;2023-09-12T06:37:31;99597.63;;;14.33;66.27
49178;BME280;35016;55.674;37.468;2023-09-12T06:39:59;99607.44;;;14.34;66.12
49178;BME280;35016;55.674;37.468;2023-09-12T06:42:26;99602.50;;;14.36;66.02
49178;BME280;35016;55.674;37.468;2023-09-12T06:44:53;99607.41;;;14.39;65.74
49178;BME280;35016;55.674;37.468;2023-09-12T06:47:21;99601.94;;;14.44;65.84
49178;BME280;35016;55.674;37.468;2023-09-12T06:49:48;99588.03;;;14.46;65.67
49178;BME280;35016;55.674;37.468;2023-09-12T06:52:22;99598.06;;;14.55;65.70
49178;BME280;35016;55.674;37.468;2023-09-12T06:54:49;99602.38;;;14.62;65.21
49178;BME280;35016;55.674;37.468;2023-09-12T06:57:16;99600.44;;;14.67;65.33
49178;BME280;35016;55.674;37.468;2023-09-12T06:59:44;99602.84;;;14.74;64.93
49178;BME280;35016;55.674;37.468;2023-09-12T07:02:11;99602.00;;;14.78;64.59
49178;BME280;35016;55.674;37.468;2023-09-12T07:04:40;99609.88;;;14.85;64.87
49178;BME280;35016;55.674;37.468;2023-09-12T07:07:07;99607.38;;;14.88;64.63
49178;BME280;35016;55.674;37.468;2023-09-12T07:09:34;99613.59;;;14.94;64.68
49178;BME280;35016;55.674;37.468;2023-09-12T07:12:02;99605.91;;;15.01;64.40
49178;BME280;35016;55.674;37.468;2023-09-12T07:14:32;99608.31;;;15.08;64.48
49178;BME280;35016;55.674;37.468;2023-09-12T07:17:00;99604.44;;;15.14;64.29
49178;BME280;35016;55.674;37.468;2023-09-12T07:19:27;99606.59;;;15.17;64.14
49178;BME280;35016;55.674;37.468;2023-09-12T07:21:55;99612.53;;;15.24;64.00
49178;BME280;35016;55.674;37.468;2023-09-12T07:24:26;99603.72;;;15.32;63.83
49178;BME280;35016;55.674;37.468;2023-09-12T07:26:54;99605.59;;;15.37;64.00
49178;BME280;35016;55.674;37.468;2023-09-12T07:29:21;99603.91;;;15.41;63.73
49178;BME280;35016;55.674;37.468;2023-09-12T07:31:52;99600.25;;;15.50;63.32
49178;BME280;35016;55.674;37.468;2023-09-12T07:34:23;99613.31;;;15.59;63.00
49178;BME280;35016;55.674;37.468;2023-09-12T07:36:50;99605.59;;;15.66;63.06
49178;BME280;35016;55.674;37.468;2023-09-12T07:39:21;99604.72;;;15.70;63.05
49178;BME280;35016;55.674;37.468;2023-09-12T07:41:48;99598.91;;;15.77;62.57
49178;BME280;35016;55.674;37.468;2023-09-12T07:44:16;99604.31;;;15.82;62.43
49178;BME280;35016;55.674;37.468;2023-09-12T07:46:43;99598.84;;;15.82;62.42
49178;BME280;35016;55.674;37.468;2023-09-12T07:49:12;99596.63;;;15.84;62.00
49178;BME280;35016;55.674;37.468;2023-09-12T07:51:39;99596.31;;;15.91;62.23
49178;BME280;35016;55.674;37.468;2023-09-12T07:54:06;99597.06;;;15.96;62.00
49178;BME280;35016;55.674;37.468;2023-09-12T07:56:33;99596.09;;;16.06;61.78
49178;BME280;35016;55.674;37.468;2023-09-12T07:59:01;99600.91;;;16.14;61.84
49178;BME280;35016;55.674;37.468;2023-09-12T08:01:28;99605.50;;;16.19;61.68
49178;BME280;35016;55.674;37.468;2023-09-12T08:03:55;99601.59;;;16.25;61.27
49178;BME280;35016;55.674;37.468;2023-09-12T08:06:26;99601.75;;;16.33;61.11
49178;BME280;35016;55.674;37.468;2023-09-12T08:08:54;99601.91;;;16.42;61.09
49178;BME280;35016;55.674;37.468;2023-09-12T08:11:21;99606.22;;;16.48;60.89
49178;BME280;35016;55.674;37.468;2023-09-12T08:13:49;99608.81;;;16.58;60.49
49178;BME280;35016;55.674;37.468;2023-09-12T08:16:16;99597.03;;;16.58;60.02
49178;BME280;35016;55.674;37.468;2023-09-12T08:18:44;99596.09;;;16.67;59.91
49178;BME280;35016;55.674;37.468;2023-09-12T08:21:11;99605.03;;;16.73;59.57
49178;BME280;35016;55.674;37.468;2023-09-12T08:23:38;99599.50;;;16.78;59.46
49178;BME280;35016;55.674;37.468;2023-09-12T08:26:06;99599.94;;;16.85;59.07
49178;BME280;35016;55.674;37.468;2023-09-12T08:28:33;99601.38;;;16.96;58.80
49178;BME280;35016;55.674;37.468;2023-09-12T08:31:01;99600.19;;;17.02;58.66
49178;BME280;35016;55.674;37.468;2023-09-12T08:33:28;99590.78;;;17.09;58.05
49178;BME280;35016;55.674;37.468;2023-09-12T08:35:55;99590.69;;;17.14;57.99
49178;BME280;35016;55.674;37.468;2023-09-12T08:38:22;99593.66;;;17.17;57.59
49178;BME280;35016;55.674;37.468;2023-09-12T08:40:51;99593.84;;;17.21;57.47
49178;BME280;35016;55.674;37.468;2023-09-12T08:43:19;99589.91;;;17.27;57.18
49178;BME280;35016;55.674;37.468;2023-09-12T08:45:46;99599.09;;;17.36;56.65
49178;BME280;35016;55.674;37.468;2023-09-12T08:48:15;99591.78;;;17.45;56.22
49178;BME280;35016;55.674;37.468;2023-09-12T08:50:43;99591.97;;;17.49;55.64
49178;BME280;35016;55.674;37.468;2023-09-12T08:53:14;99590.75;;;17.55;55.40
49178;BME280;35016;55.674;37.468;2023-09-12T08:55:42;99587.41;;;17.58;54.96
49178;BME280;35016;55.674;37.468;2023-09-12T08:58:09;99588.13;;;17.63;54.74
49178;BME280;35016;55.674;37.468;2023-09-12T09:00:39;99584.22;;;17.70;54.40
49178;BME280;35016;55.674;37.468;2023-09-12T09:03:09;99589.00;;;17.78;54.27
49178;BME280;35016;55.674;37.468;2023-09-12T09:05:37;99581.97;;;17.85;53.97
49178;BME280;35016;55.674;37.468;2023-09-12T09:08:07;99586.22;;;17.91;53.63
49178;BME280;35016;55.674;37.468;2023-09-12T09:10:36;99584.53;;;17.95;53.68
49178;BME280;35016;55.674;37.468;2023-09-12T09:13:16;99586.66;;;17.99;53.62
49178;BME280;35016;55.674;37.468;2023-09-12T09:15:44;99582.19;;;18.03;53.56
49178;BME280;35016;55.674;37.468;2023-09-12T09:18:11;99578.19;;;18.09;53.16
49178;BME280;35016;55.674;37.468;2023-09-12T09:20:40;99576.97;;;18.15;52.96
49178;BME280;35016;55.674;37.468;2023-09-12T09:23:19;99577.88;;;18.24;52.42
49178;BME280;35016;55.674;37.468;2023-09-12T09:25:52;99582.44;;;18.29;52.37
49178;BME280;35016;55.674;37.468;2023-09-12T09:28:21;99585.88;;;18.34;52.64
49178;BME280;35016;55.674;37.468;2023-09-12T09:30:50;99575.91;;;18.38;52.58
49178;BME280;35016;55.674;37.468;2023-09-12T09:33:23;99567.97;;;18.37;52.35
49178;BME280;35016;55.674;37.468;2023-09-12T09:36:02;99578.22;;;18.45;51.30
49178;BME280;35016;55.674;37.468;2023-09-12T09:38:30;99579.44;;;18.52;51.85
49178;BME280;35016;55.674;37.468;2023-09-12T09:40:57;99577.69;;;18.56;51.49
49178;BME280;35016;55.674;37.468;2023-09-12T09:43:25;99574.81;;;18.62;51.33
49178;BME280;35016;55.674;37.468;2023-09-12T09:45:52;99571.66;;;18.68;51.07
49178;BME280;35016;55.674;37.468;2023-09-12T09:48:21;99575.81;;;18.79;51.07
49178;BME280;35016;55.674;37.468;2023-09-12T09:50:49;99572.31;;;18.87;50.89
49178;BME280;35016;55.674;37.468;2023-09-12T09:53:26;99577.88;;;18.96;49.89
49178;BME280;35016;55.674;37.468;2023-09-12T09:56:07;99562.22;;;19.05;49.33
49178;BME280;35016;55.674;37.468;2023-09-12T09:58:35;99574.25;;;19.09;49.90
49178;BME280;35016;55.674;37.468;2023-09-12T10:01:06;99578.78;;;19.14;48.88
49178;BME280;35016;55.674;37.468;2023-09-12T10:03:36;99578.97;;;19.17;49.43
49178;BME280;35016;55.674;37.468;2023-09-12T10:06:05;99565.56;;;19.16;49.34
49178;BME280;35016;55.674;37.468;2023-09-12T10:08:35;99575.72;;;19.15;48.97
49178;BME280;35016;55.674;37.468;2023-09-12T10:11:04;99565.72;;;19.19;48.82
49178;BME280;35016;55.674;37.468;2023-09-12T10:13:33;99568.34;;;19.25;48.48
49178;BME280;35016;55.674;37.468;2023-09-12T10:16:02;99566.09;;;19.27;48.31
49178;BME280;35016;55.674;37.468;2023-09-12T10:18:35;99571.59;;;19.27;47.56
49178;BME280;35016;55.674;37.468;2023-09-12T10:21:19;99570.63;;;19.31;47.07
49178;BME280;35016;55.674;37.468;2023-09-12T10:23:49;99551.56;;;19.35;47.85
49178;BME280;35016;55.674;37.468;2023-09-12T10:26:18;99558.75;;;19.44;47.51
49178;BME280;35016;55.674;37.468;2023-09-12T10:28:48;99568.16;;;19.52;47.09
49178;BME280;35016;55.674;37.468;2023-09-12T10:31:17;99569.53;;;19.63;46.87
49178;BME280;35016;55.674;37.468;2023-09-12T10:33:46;99575.06;;;19.72;46.59
49178;BME280;35016;55.674;37.468;2023-09-12T10:36:15;99570.22;;;19.77;46.51
49178;BME280;35016;55.674;37.468;2023-09-12T10:38:47;99563.78;;;19.82;45.93
49178;BME280;35016;55.674;37.468;2023-09-12T10:41:15;99572.53;;;19.93;45.92
49178;BME280;35016;55.674;37.468;2023-09-12T10:43:44;99569.81;;;20.01;45.56
49178;BME280;35016;55.674;37.468;2023-09-12T10:46:16;99570.00;;;20.14;45.58
49178;BME280;35016;55.674;37.468;2023-09-12T10:48:47;99563.03;;;20.16;45.05
49178;BME280;35016;55.674;37.468;2023-09-12T10:51:16;99563.69;;;20.22;44.96
49178;BME280;35016;55.674;37.468;2023-09-12T10:53:47;99561.28;;;20.29;44.53
49178;BME280;35016;55.674;37.468;2023-09-12T10:56:19;99560.97;;;20.39;45.12
49178;BME280;35016;55.674;37.468;2023-09-12T11:01:43;99555.16;;;20.49;44.82
49178;BME280;35016;55.674;37.468;2023-09-12T11:06:47;99551.28;;;20.67;44.26
49178;BME280;35016;55.674;37.468;2023-09-12T11:09:18;99555.00;;;20.71;44.04
49178;BME280;35016;55.674;37.468;2023-09-12T11:11:47;99549.97;;;20.73;43.77
49178;BME280;35016;55.674;37.468;2023-09-12T11:14:15;99537.97;;;20.78;43.33
49178;BME280;35016;55.674;37.468;2023-09-12T11:19:46;99551.13;;;20.90;42.61
49178;BME280;35016;55.674;37.468;2023-09-12T11:22:26;99546.09;;;20.92;42.48
49178;BME280;35016;55.674;37.468;2023-09-12T11:24:54;99544.13;;;20.92;42.95
49178;BME280;35016;55.674;37.468;2023-09-12T11:27:25;99543.16;;;20.88;42.64
49178;BME280;35016;55.674;37.468;2023-09-12T11:30:05;99541.03;;;20.94;42.18
49178;BME280;35016;55.674;37.468;2023-09-12T11:32:36;99541.53;;;20.96;42.20
49178;BME280;35016;55.674;37.468;2023-09-12T11:35:08;99544.63;;;20.86;41.90
49178;BME280;35016;55.674;37.468;2023-09-12T11:37:35;99540.25;;;20.67;42.88
49178;BME280;35016;55.674;37.468;2023-09-12T11:42:42;99546.56;;;20.51;43.30
49178;BME280;35016;55.674;37.468;2023-09-12T11:45:10;99542.06;;;20.55;43.19
49178;BME280;35016;55.674;37.468;2023-09-12T11:47:41;99544.66;;;20.60;42.47
49178;BME280;35016;55.674;37.468;2023-09-12T11:50:34;99540.25;;;20.67;42.02
49178;BME280;35016;55.674;37.468;2023-09-12T11:53:08;99536.06;;;20.61;42.38
49178;BME280;35016;55.674;37.468;2023-09-12T11:55:43;99542.22;;;20.67;42.67
49178;BME280;35016;55.674;37.468;2023-09-12T11:58:13;99534.25;;;20.74;42.38
49178;BME280;35016;55.674;37.468;2023-09-12T12:00:50;99537.66;;;20.80;41.48
49178;BME280;35016;55.674;37.468;2023-09-12T12:03:20;99527.94;;;20.73;42.36
49178;BME280;35016;55.674;37.468;2023-09-12T12:05:49;99545.78;;;20.67;42.42
49178;BME280;35016;55.674;37.468;2023-09-12T12:08:18;99532.66;;;20.56;42.32
49178;BME280;35016;55.674;37.468;2023-09-12T12:10:52;99537.69;;;20.54;42.34
49178;BME280;35016;55.674;37.468;2023-09-12T12:13:21;99532.16;;;20.62;42.75
49178;BME280;35016;55.674;37.468;2023-09-12T12:15:48;99533.72;;;21.07;42.70
49178;BME280;35016;55.674;37.468;2023-09-12T12:18:16;99529.78;;;21.33;42.20
49178;BME280;35016;55.674;37.468;2023-09-12T12:20:43;99535.91;;;21.48;41.85
49178;BME280;35016;55.674;37.468;2023-09-12T12:23:12;99526.63;;;21.52;42.09
49178;BME280;35016;55.674;37.468;2023-09-12T12:25:39;99533.47;;;21.46;41.99
49178;BME280;35016;55.674;37.468;2023-09-12T12:28:07;99530.41;;;21.39;41.72
49178;BME280;35016;55.674;37.468;2023-09-12T12:30:35;99539.34;;;21.36;41.93
49178;BME280;35016;55.674;37.468;2023-09-12T12:33:08;99526.53;;;21.31;40.84
49178;BME280;35016;55.674;37.468;2023-09-12T12:36:04;99535.09;;;21.47;41.10
49178;BME280;35016;55.674;37.468;2023-09-12T12:38:37;99525.06;;;21.43;41.27
49178;BME280;35016;55.674;37.468;2023-09-12T12:41:26;99521.34;;;21.30;41.48
49178;BME280;35016;55.674;37.468;2023-09-12T12:44:05;99518.59;;;21.21;42.19
49178;BME280;35016;55.674;37.468;2023-09-12T12:46:33;99520.72;;;21.16;42.27
49178;BME280;35016;55.674;37.468;2023-09-12T12:49:00;99523.78;;;21.23;42.24
49178;BME280;35016;55.674;37.468;2023-09-12T12:51:28;99521.34;;;21.30;42.15
49178;BME280;35016;55.674;37.468;2023-09-12T12:54:03;99525.09;;;21.25;41.19
49178;BME280;35016;55.674;37.468;2023-09-12T12:56:31;99515.16;;;21.33;42.11
49178;BME280;35016;55.674;37.468;2023-09-12T12:59:00;99523.09;;;21.43;41.81
49178;BME280;35016;55.674;37.468;2023-09-12T13:01:30;99520.97;;;21.49;41.66
49178;BME280;35016;55.674;37.468;2023-09-12T13:03:58;99518.06;;;21.37;41.73
49178;BME280;35016;55.674;37.468;2023-09-12T13:06:26;99521.34;;;21.30;41.37
49178;BME280;35016;55.674;37.468;2023-09-12T13:08:55;99527.19;;;21.28;41.58
49178;BME280;35016;55.674;37.468;2023-09-12T13:11:24;99522.31;;;21.34;41.67
49178;BME280;35016;55.674;37.468;2023-09-12T13:13:51;99529.19;;;21.57;41.30
49178;BME280;35016;55.674;37.468;2023-09-12T13:16:19;99526.06;;;21.97;40.89
49178;BME280;35016;55.674;37.468;2023-09-12T13:18:46;99521.34;;;22.06;40.46